sensor_id;sensor_type;location;lat;lon;timestamp;P1;durP1;ratioP1;P2;durP2;ratioP2
26062;SDS011;13837;48.562;12.108;2023-11-19T00:00:34;26.65;;;25.35;;
26062;SDS011;13837;48.562;12.108;2023-11-19T00:03:00;26.77;;;25.48;;
26062;SDS011;13837;48.562;12.108;2023-11-19T00:05:26;26.58;;;25.35;;
26062;SDS011;13837;48.562;12.108;2023-11-19T00:07:53;26.40;;;25.20;;
26062;SDS011;13837;48.562;12.108;2023-11-19T00:10:19;26.52;;;25.13;;
26062;SDS011;13837;48.562;12.108;2023-11-19T00:12:49;27.90;;;26.50;;
26062;SDS011;13837;48.562;12.108;2023-11-19T00:15:15;28.48;;;27.13;;
26062;SDS011;13837;48.562;12.108;2023-11-19T00:17:44;26.75;;;25.45;;
26062;SDS011;13837;48.562;12.108;2023-11-19T00:20:14;27.63;;;26.00;;
26062;SDS011;13837;48.562;12.108;2023-11-19T00:22:41;28.02;;;26.63;;
26062;SDS011;13837;48.562;12.108;2023-11-19T00:25:07;28.90;;;27.40;;
26062;SDS011;13837;48.562;12.108;2023-11-19T00:27:34;27.27;;;25.88;;
26062;SDS011;13837;48.562;12.108;2023-11-19T00:30:00;27.02;;;25.52;;
26062;SDS011;13837;48.562;12.108;2023-11-19T00:32:27;26.55;;;25.23;;
26062;SDS011;13837;48.562;12.108;2023-11-19T00:34:53;28.27;;;26.88;;
26062;SDS011;13837;48.562;12.108;2023-11-19T00:37:19;28.13;;;26.63;;
26062;SDS011;13837;48.562;12.108;2023-11-19T00:39:45;26.52;;;25.30;;
26062;SDS011;13837;48.562;12.108;2023-11-19T00:42:11;27.73;;;26.23;;
26062;SDS011;13837;48.562;12.108;2023-11-19T00:44:37;26.85;;;25.45;;
26062;SDS011;13837;48.562;12.108;2023-11-19T00:47:03;26.85;;;25.45;;
26062;SDS011;13837;48.562;12.108;2023-11-19T00:49:30;27.75;;;26.25;;
26062;SDS011;13837;48.562;12.108;2023-11-19T00:51:58;27.95;;;26.38;;
26062;SDS011;13837;48.562;12.108;2023-11-19T00:54:24;26.58;;;25.17;;
26062;SDS011;13837;48.562;12.108;2023-11-19T00:56:54;27.08;;;25.67;;
26062;SDS011;13837;48.562;12.108;2023-11-19T00:59:20;26.73;;;25.27;;
26062;SDS011;13837;48.562;12.108;2023-11-19T01:01:46;28.83;;;27.42;;
26062;SDS011;13837;48.562;12.108;2023-11-19T01:04:18;27.38;;;26.08;;
26062;SDS011;13837;48.562;12.108;2023-11-19T01:06:44;28.23;;;26.83;;
26062;SDS011;13837;48.562;12.108;2023-11-19T01:09:11;29.00;;;27.50;;
26062;SDS011;13837;48.562;12.108;2023-11-19T01:11:37;28.23;;;26.83;;
26062;SDS011;13837;48.562;12.108;2023-11-19T01:14:04;27.17;;;25.77;;
26062;SDS011;13837;48.562;12.108;2023-11-19T01:16:30;27.52;;;26.23;;
26062;SDS011;13837;48.562;12.108;2023-11-19T01:18:56;26.77;;;25.38;;
26062;SDS011;13837;48.562;12.108;2023-11-19T01:21:22;27.00;;;25.63;;
26062;SDS011;13837;48.562;12.108;2023-11-19T01:23:48;28.30;;;26.90;;
26062;SDS011;13837;48.562;12.108;2023-11-19T01:26:14;27.50;;;26.20;;
26062;SDS011;13837;48.562;12.108;2023-11-19T01:28:41;26.80;;;25.52;;
26062;SDS011;13837;48.562;12.108;2023-11-19T01:31:14;26.63;;;25.33;;
26062;SDS011;13837;48.562;12.108;2023-11-19T01:33:40;27.02;;;25.83;;
26062;SDS011;13837;48.562;12.108;2023-11-19T01:36:07;27.30;;;26.00;;
26062;SDS011;13837;48.562;12.108;2023-11-19T01:38:33;27.67;;;26.27;;
26062;SDS011;13837;48.562;12.108;2023-11-19T01:41:00;26.80;;;25.50;;
26062;SDS011;13837;48.562;12.108;2023-11-19T01:43:35;27.38;;;26.08;;
26062;SDS011;13837;48.562;12.108;2023-11-19T01:46:01;26.70;;;25.40;;
26062;SDS011;13837;48.562;12.108;2023-11-19T01:48:31;26.50;;;25.23;;
26062;SDS011;13837;48.562;12.108;2023-11-19T01:50:58;26.42;;;25.23;;
26062;SDS011;13837;48.562;12.108;2023-11-19T01:53:24;26.70;;;25.48;;
26062;SDS011;13837;48.562;12.108;2023-11-19T01:55:50;25.88;;;24.75;;
26062;SDS011;13837;48.562;12.108;2023-11-19T01:58:17;26.40;;;25.20;;
26062;SDS011;13837;48.562;12.108;2023-11-19T02:00:44;26.55;;;25.35;;
26062;SDS011;13837;48.562;12.108;2023-11-19T02:03:11;26.50;;;25.30;;
26062;SDS011;13837;48.562;12.108;2023-11-19T02:05:38;26.48;;;25.27;;
26062;SDS011;13837;48.562;12.108;2023-11-19T02:08:04;27.30;;;26.00;;
26062;SDS011;13837;48.562;12.108;2023-11-19T02:10:30;26.63;;;25.40;;
26062;SDS011;13837;48.562;12.108;2023-11-19T02:12:57;26.80;;;25.70;;
26062;SDS011;13837;48.562;12.108;2023-11-19T02:15:23;26.42;;;25.23;;
26062;SDS011;13837;48.562;12.108;2023-11-19T02:17:50;27.38;;;26.08;;
26062;SDS011;13837;48.562;12.108;2023-11-19T02:20:16;26.90;;;25.70;;
26062;SDS011;13837;48.562;12.108;2023-11-19T02:22:45;36.80;;;35.20;;
26062;SDS011;13837;48.562;12.108;2023-11-19T02:25:46;26.60;;;25.40;;
26062;SDS011;13837;48.562;12.108;2023-11-19T02:28:05;26.90;;;25.70;;
26062;SDS011;13837;48.562;12.108;2023-11-19T02:30:32;26.98;;;25.77;;
26062;SDS011;13837;48.562;12.108;2023-11-19T02:32:59;27.42;;;26.13;;
26062;SDS011;13837;48.562;12.108;2023-11-19T02:35:30;27.63;;;26.33;;
26062;SDS011;13837;48.562;12.108;2023-11-19T02:37:57;26.90;;;25.70;;
26062;SDS011;13837;48.562;12.108;2023-11-19T02:40:28;26.25;;;25.05;;
26062;SDS011;13837;48.562;12.108;2023-11-19T02:42:55;26.30;;;25.10;;
26062;SDS011;13837;48.562;12.108;2023-11-19T02:45:24;26.35;;;25.15;;
26062;SDS011;13837;48.562;12.108;2023-11-19T02:47:51;26.50;;;25.30;;
26062;SDS011;13837;48.562;12.108;2023-11-19T02:50:18;26.08;;;24.88;;
26062;SDS011;13837;48.562;12.108;2023-11-19T02:52:50;27.05;;;25.85;;
26062;SDS011;13837;48.562;12.108;2023-11-19T02:55:16;26.05;;;24.85;;
26062;SDS011;13837;48.562;12.108;2023-11-19T02:57:43;27.17;;;25.95;;
26062;SDS011;13837;48.562;12.108;2023-11-19T03:00:16;26.88;;;25.67;;
26062;SDS011;13837;48.562;12.108;2023-11-19T03:02:42;26.40;;;25.10;;
26062;SDS011;13837;48.562;12.108;2023-11-19T03:05:11;26.20;;;24.90;;
26062;SDS011;13837;48.562;12.108;2023-11-19T03:07:39;26.05;;;24.75;;
26062;SDS011;13837;48.562;12.108;2023-11-19T03:10:06;27.02;;;25.80;;
26062;SDS011;13837;48.562;12.108;2023-11-19T03:12:34;25.75;;;24.55;;
26062;SDS011;13837;48.562;12.108;2023-11-19T03:15:00;26.67;;;25.48;;
26062;SDS011;13837;48.562;12.108;2023-11-19T03:17:26;25.88;;;24.67;;
26062;SDS011;13837;48.562;12.108;2023-11-19T03:19:52;26.27;;;24.98;;
26062;SDS011;13837;48.562;12.108;2023-11-19T03:22:18;26.02;;;24.83;;
26062;SDS011;13837;48.562;12.108;2023-11-19T03:24:46;25.80;;;24.60;;
26062;SDS011;13837;48.562;12.108;2023-11-19T03:27:12;25.33;;;24.13;;
26062;SDS011;13837;48.562;12.108;2023-11-19T03:29:38;24.63;;;23.42;;
26062;SDS011;13837;48.562;12.108;2023-11-19T03:32:04;24.35;;;23.15;;
26062;SDS011;13837;48.562;12.108;2023-11-19T03:34:30;25.05;;;23.90;;
26062;SDS011;13837;48.562;12.108;2023-11-19T03:36:56;26.45;;;24.95;;
26062;SDS011;13837;48.562;12.108;2023-11-19T03:39:22;25.23;;;24.02;;
26062;SDS011;13837;48.562;12.108;2023-11-19T03:41:50;24.70;;;23.60;;
26062;SDS011;13837;48.562;12.108;2023-11-19T03:44:16;25.25;;;24.15;;
26062;SDS011;13837;48.562;12.108;2023-11-19T03:46:43;25.20;;;24.10;;
26062;SDS011;13837;48.562;12.108;2023-11-19T03:49:09;25.23;;;24.05;;
26062;SDS011;13837;48.562;12.108;2023-11-19T03:51:35;24.65;;;23.48;;
26062;SDS011;13837;48.562;12.108;2023-11-19T03:54:01;25.10;;;23.80;;
26062;SDS011;13837;48.562;12.108;2023-11-19T03:56:27;26.25;;;24.85;;
26062;SDS011;13837;48.562;12.108;2023-11-19T03:58:53;27.35;;;25.90;;
26062;SDS011;13837;48.562;12.108;2023-11-19T04:01:19;28.30;;;26.60;;
26062;SDS011;13837;48.562;12.108;2023-11-19T04:03:45;29.10;;;27.30;;
26062;SDS011;13837;48.562;12.108;2023-11-19T04:06:11;28.33;;;26.58;;
26062;SDS011;13837;48.562;12.108;2023-11-19T04:08:37;29.55;;;27.65;;
26062;SDS011;13837;48.562;12.108;2023-11-19T04:11:04;29.58;;;27.52;;
26062;SDS011;13837;48.562;12.108;2023-11-19T04:13:30;29.15;;;26.95;;
26062;SDS011;13837;48.562;12.108;2023-11-19T04:15:56;29.33;;;27.38;;
26062;SDS011;13837;48.562;12.108;2023-11-19T04:18:22;28.27;;;26.38;;
26062;SDS011;13837;48.562;12.108;2023-11-19T04:20:48;28.27;;;26.33;;
26062;SDS011;13837;48.562;12.108;2023-11-19T04:23:16;27.95;;;26.25;;
26062;SDS011;13837;48.562;12.108;2023-11-19T04:25:42;28.00;;;26.30;;
26062;SDS011;13837;48.562;12.108;2023-11-19T04:28:08;27.13;;;25.52;;
26062;SDS011;13837;48.562;12.108;2023-11-19T04:30:34;27.13;;;25.42;;
26062;SDS011;13837;48.562;12.108;2023-11-19T04:33:00;27.73;;;26.08;;
26062;SDS011;13837;48.562;12.108;2023-11-19T04:35:26;27.00;;;25.40;;
26062;SDS011;13837;48.562;12.108;2023-11-19T04:37:52;26.02;;;24.52;;
26062;SDS011;13837;48.562;12.108;2023-11-19T04:40:20;26.05;;;24.55;;
26062;SDS011;13837;48.562;12.108;2023-11-19T04:42:47;25.70;;;24.30;;
26062;SDS011;13837;48.562;12.108;2023-11-19T04:45:13;26.77;;;25.10;;
26062;SDS011;13837;48.562;12.108;2023-11-19T04:47:41;26.63;;;24.92;;
26062;SDS011;13837;48.562;12.108;2023-11-19T04:50:07;26.80;;;25.20;;
26062;SDS011;13837;48.562;12.108;2023-11-19T04:52:38;27.75;;;25.95;;
26062;SDS011;13837;48.562;12.108;2023-11-19T04:55:10;28.77;;;26.77;;
26062;SDS011;13837;48.562;12.108;2023-11-19T04:57:39;30.27;;;28.10;;
26062;SDS011;13837;48.562;12.108;2023-11-19T05:00:05;29.25;;;27.20;;
26062;SDS011;13837;48.562;12.108;2023-11-19T05:02:36;29.42;;;27.20;;
26062;SDS011;13837;48.562;12.108;2023-11-19T05:05:02;27.90;;;26.02;;
26062;SDS011;13837;48.562;12.108;2023-11-19T05:07:32;28.42;;;26.63;;
26062;SDS011;13837;48.562;12.108;2023-11-19T05:09:58;28.70;;;26.80;;
26062;SDS011;13837;48.562;12.108;2023-11-19T05:12:25;30.20;;;28.02;;
26062;SDS011;13837;48.562;12.108;2023-11-19T05:14:51;29.67;;;27.67;;
26062;SDS011;13837;48.562;12.108;2023-11-19T05:17:17;28.15;;;26.25;;
26062;SDS011;13837;48.562;12.108;2023-11-19T05:19:44;27.13;;;25.35;;
26062;SDS011;13837;48.562;12.108;2023-11-19T05:22:10;27.95;;;26.23;;
26062;SDS011;13837;48.562;12.108;2023-11-19T05:24:36;28.85;;;26.90;;
26062;SDS011;13837;48.562;12.108;2023-11-19T05:27:02;30.58;;;28.55;;
26062;SDS011;13837;48.562;12.108;2023-11-19T05:29:28;29.33;;;27.33;;
26062;SDS011;13837;48.562;12.108;2023-11-19T05:31:54;28.75;;;26.85;;
26062;SDS011;13837;48.562;12.108;2023-11-19T05:34:20;29.48;;;27.40;;
26062;SDS011;13837;48.562;12.108;2023-11-19T05:36:47;28.65;;;26.60;;
26062;SDS011;13837;48.562;12.108;2023-11-19T05:39:13;27.73;;;25.85;;
26062;SDS011;13837;48.562;12.108;2023-11-19T05:41:39;28.10;;;26.27;;
26062;SDS011;13837;48.562;12.108;2023-11-19T05:44:05;27.90;;;26.05;;
26062;SDS011;13837;48.562;12.108;2023-11-19T05:46:31;29.02;;;27.05;;
26062;SDS011;13837;48.562;12.108;2023-11-19T05:48:58;29.42;;;27.33;;
26062;SDS011;13837;48.562;12.108;2023-11-19T05:51:24;27.85;;;26.05;;
26062;SDS011;13837;48.562;12.108;2023-11-19T05:53:50;28.95;;;26.92;;
26062;SDS011;13837;48.562;12.108;2023-11-19T05:56:16;27.85;;;26.05;;
26062;SDS011;13837;48.562;12.108;2023-11-19T05:58:46;28.95;;;26.88;;
26062;SDS011;13837;48.562;12.108;2023-11-19T06:01:14;27.80;;;26.08;;
26062;SDS011;13837;48.562;12.108;2023-11-19T06:03:40;27.77;;;26.02;;
26062;SDS011;13837;48.562;12.108;2023-11-19T06:06:08;24.58;;;22.98;;
26062;SDS011;13837;48.562;12.108;2023-11-19T06:08:34;23.60;;;22.10;;
26062;SDS011;13837;48.562;12.108;2023-11-19T06:11:00;21.75;;;20.45;;
26062;SDS011;13837;48.562;12.108;2023-11-19T06:13:27;17.13;;;16.02;;
26062;SDS011;13837;48.562;12.108;2023-11-19T06:15:55;23.05;;;21.65;;
26062;SDS011;13837;48.562;12.108;2023-11-19T06:18:22;26.42;;;24.83;;
26062;SDS011;13837;48.562;12.108;2023-11-19T06:20:48;26.40;;;24.83;;
26062;SDS011;13837;48.562;12.108;2023-11-19T06:23:15;27.55;;;25.95;;
26062;SDS011;13837;48.562;12.108;2023-11-19T06:25:41;27.42;;;25.77;;
26062;SDS011;13837;48.562;12.108;2023-11-19T06:28:07;27.65;;;26.10;;
26062;SDS011;13837;48.562;12.108;2023-11-19T06:30:33;27.08;;;25.58;;
26062;SDS011;13837;48.562;12.108;2023-11-19T06:33:01;27.42;;;25.52;;
26062;SDS011;13837;48.562;12.108;2023-11-19T06:35:28;26.05;;;24.55;;
26062;SDS011;13837;48.562;12.108;2023-11-19T06:38:01;26.23;;;24.63;;
26062;SDS011;13837;48.562;12.108;2023-11-19T06:40:28;27.63;;;25.83;;
26062;SDS011;13837;48.562;12.108;2023-11-19T06:42:55;27.02;;;25.33;;
26062;SDS011;13837;48.562;12.108;2023-11-19T06:45:21;26.73;;;25.02;;
26062;SDS011;13837;48.562;12.108;2023-11-19T06:47:47;26.25;;;24.65;;
26062;SDS011;13837;48.562;12.108;2023-11-19T06:50:13;26.83;;;25.20;;
26062;SDS011;13837;48.562;12.108;2023-11-19T06:52:40;27.67;;;25.85;;
26062;SDS011;13837;48.562;12.108;2023-11-19T06:55:06;27.02;;;25.42;;
26062;SDS011;13837;48.562;12.108;2023-11-19T06:57:33;27.00;;;25.30;;
26062;SDS011;13837;48.562;12.108;2023-11-19T06:59:59;26.85;;;25.05;;
26062;SDS011;13837;48.562;12.108;2023-11-19T07:02:25;27.90;;;26.00;;
26062;SDS011;13837;48.562;12.108;2023-11-19T07:04:52;29.05;;;26.95;;
26062;SDS011;13837;48.562;12.108;2023-11-19T07:07:18;28.58;;;26.60;;
26062;SDS011;13837;48.562;12.108;2023-11-19T07:09:45;27.48;;;25.75;;
26062;SDS011;13837;48.562;12.108;2023-11-19T07:12:11;27.23;;;25.50;;
26062;SDS011;13837;48.562;12.108;2023-11-19T07:14:38;29.15;;;27.15;;
26062;SDS011;13837;48.562;12.108;2023-11-19T07:17:04;30.58;;;28.38;;
26062;SDS011;13837;48.562;12.108;2023-11-19T07:19:31;28.55;;;26.60;;
26062;SDS011;13837;48.562;12.108;2023-11-19T07:21:57;27.42;;;25.38;;
26062;SDS011;13837;48.562;12.108;2023-11-19T07:24:23;28.80;;;26.90;;
26062;SDS011;13837;48.562;12.108;2023-11-19T07:26:49;28.05;;;26.25;;
26062;SDS011;13837;48.562;12.108;2023-11-19T07:29:15;27.73;;;26.02;;
26062;SDS011;13837;48.562;12.108;2023-11-19T07:31:42;28.25;;;26.27;;
26062;SDS011;13837;48.562;12.108;2023-11-19T07:34:11;27.77;;;25.98;;
26062;SDS011;13837;48.562;12.108;2023-11-19T07:36:39;28.77;;;26.85;;
26062;SDS011;13837;48.562;12.108;2023-11-19T07:39:05;27.65;;;26.00;;
26062;SDS011;13837;48.562;12.108;2023-11-19T07:41:31;27.58;;;25.77;;
26062;SDS011;13837;48.562;12.108;2023-11-19T07:43:57;26.58;;;24.98;;
26062;SDS011;13837;48.562;12.108;2023-11-19T07:46:23;25.80;;;24.20;;
26062;SDS011;13837;48.562;12.108;2023-11-19T07:48:50;25.83;;;24.15;;
26062;SDS011;13837;48.562;12.108;2023-11-19T07:51:16;30.60;;;27.98;;
26062;SDS011;13837;48.562;12.108;2023-11-19T07:53:42;25.02;;;23.42;;
26062;SDS011;13837;48.562;12.108;2023-11-19T07:56:08;22.60;;;21.10;;
26062;SDS011;13837;48.562;12.108;2023-11-19T07:58:35;21.00;;;19.58;;
26062;SDS011;13837;48.562;12.108;2023-11-19T08:01:01;21.15;;;19.85;;
26062;SDS011;13837;48.562;12.108;2023-11-19T08:03:28;23.92;;;22.23;;
26062;SDS011;13837;48.562;12.108;2023-11-19T08:05:57;23.60;;;22.27;;
26062;SDS011;13837;48.562;12.108;2023-11-19T08:08:23;25.92;;;24.00;;
26062;SDS011;13837;48.562;12.108;2023-11-19T08:10:49;23.42;;;22.02;;
26062;SDS011;13837;48.562;12.108;2023-11-19T08:13:19;21.95;;;20.60;;
26062;SDS011;13837;48.562;12.108;2023-11-19T08:15:45;28.00;;;25.45;;
26062;SDS011;13837;48.562;12.108;2023-11-19T08:18:12;22.33;;;21.02;;
26062;SDS011;13837;48.562;12.108;2023-11-19T08:20:38;20.55;;;19.40;;
26062;SDS011;13837;48.562;12.108;2023-11-19T08:23:04;17.10;;;16.23;;
26062;SDS011;13837;48.562;12.108;2023-11-19T08:25:30;19.58;;;18.58;;
26062;SDS011;13837;48.562;12.108;2023-11-19T08:27:58;12.27;;;11.68;;
26062;SDS011;13837;48.562;12.108;2023-11-19T08:30:25;20.08;;;18.98;;
26062;SDS011;13837;48.562;12.108;2023-11-19T08:32:52;19.80;;;18.80;;
26062;SDS011;13837;48.562;12.108;2023-11-19T08:35:18;17.80;;;16.88;;
26062;SDS011;13837;48.562;12.108;2023-11-19T08:37:44;9.95;;;9.45;;
26062;SDS011;13837;48.562;12.108;2023-11-19T08:40:11;17.70;;;16.90;;
26062;SDS011;13837;48.562;12.108;2023-11-19T08:42:39;17.95;;;17.05;;
26062;SDS011;13837;48.562;12.108;2023-11-19T08:45:05;17.15;;;16.25;;
26062;SDS011;13837;48.562;12.108;2023-11-19T08:47:31;10.63;;;10.02;;
26062;SDS011;13837;48.562;12.108;2023-11-19T08:49:57;12.35;;;11.73;;
26062;SDS011;13837;48.562;12.108;2023-11-19T08:52:23;16.30;;;15.60;;
26062;SDS011;13837;48.562;12.108;2023-11-19T08:54:49;16.38;;;15.68;;
26062;SDS011;13837;48.562;12.108;2023-11-19T08:57:15;16.85;;;15.95;;
26062;SDS011;13837;48.562;12.108;2023-11-19T08:59:41;15.07;;;14.38;;
26062;SDS011;13837;48.562;12.108;2023-11-19T09:02:08;17.85;;;16.75;;
26062;SDS011;13837;48.562;12.108;2023-11-19T09:04:35;17.23;;;16.42;;
26062;SDS011;13837;48.562;12.108;2023-11-19T09:07:01;16.98;;;16.00;;
26062;SDS011;13837;48.562;12.108;2023-11-19T09:09:28;16.52;;;15.73;;
26062;SDS011;13837;48.562;12.108;2023-11-19T09:11:54;15.55;;;14.82;;
26062;SDS011;13837;48.562;12.108;2023-11-19T09:14:20;14.02;;;13.43;;
26062;SDS011;13837;48.562;12.108;2023-11-19T09:16:51;16.77;;;16.08;;
26062;SDS011;13837;48.562;12.108;2023-11-19T09:19:17;17.35;;;16.55;;
26062;SDS011;13837;48.562;12.108;2023-11-19T09:21:43;17.20;;;16.50;;
26062;SDS011;13837;48.562;12.108;2023-11-19T09:24:10;16.70;;;15.90;;
26062;SDS011;13837;48.562;12.108;2023-11-19T09:26:36;17.20;;;16.50;;
26062;SDS011;13837;48.562;12.108;2023-11-19T09:29:04;16.77;;;16.07;;
26062;SDS011;13837;48.562;12.108;2023-11-19T09:31:30;15.98;;;15.32;;
26062;SDS011;13837;48.562;12.108;2023-11-19T09:33:57;16.50;;;15.80;;
26062;SDS011;13837;48.562;12.108;2023-11-19T09:36:23;15.82;;;15.23;;
26062;SDS011;13837;48.562;12.108;2023-11-19T09:38:49;15.98;;;15.10;;
26062;SDS011;13837;48.562;12.108;2023-11-19T09:41:15;15.68;;;15.07;;
26062;SDS011;13837;48.562;12.108;2023-11-19T09:43:41;15.98;;;15.18;;
26062;SDS011;13837;48.562;12.108;2023-11-19T09:46:10;15.93;;;15.27;;
26062;SDS011;13837;48.562;12.108;2023-11-19T09:48:38;15.70;;;15.10;;
26062;SDS011;13837;48.562;12.108;2023-11-19T09:51:08;15.30;;;14.70;;
26062;SDS011;13837;48.562;12.108;2023-11-19T09:53:35;15.00;;;14.40;;
26062;SDS011;13837;48.562;12.108;2023-11-19T09:56:05;14.73;;;14.13;;
26062;SDS011;13837;48.562;12.108;2023-11-19T09:58:32;14.80;;;14.20;;
26062;SDS011;13837;48.562;12.108;2023-11-19T10:00:59;14.75;;;14.15;;
26062;SDS011;13837;48.562;12.108;2023-11-19T10:03:27;14.95;;;14.35;;
26062;SDS011;13837;48.562;12.108;2023-11-19T10:05:57;14.82;;;13.98;;
26062;SDS011;13837;48.562;12.108;2023-11-19T10:08:23;14.70;;;14.00;;
26062;SDS011;13837;48.562;12.108;2023-11-19T10:10:49;14.98;;;14.38;;
26062;SDS011;13837;48.562;12.108;2023-11-19T10:13:17;14.68;;;14.00;;
26062;SDS011;13837;48.562;12.108;2023-11-19T10:15:43;14.70;;;14.10;;
26062;SDS011;13837;48.562;12.108;2023-11-19T10:18:09;14.23;;;13.63;;
26062;SDS011;13837;48.562;12.108;2023-11-19T10:20:36;14.50;;;13.90;;
26062;SDS011;13837;48.562;12.108;2023-11-19T10:23:02;14.60;;;13.90;;
26062;SDS011;13837;48.562;12.108;2023-11-19T10:25:28;14.43;;;13.82;;
26062;SDS011;13837;48.562;12.108;2023-11-19T10:27:55;14.25;;;13.65;;
26062;SDS011;13837;48.562;12.108;2023-11-19T10:30:22;13.98;;;13.38;;
26062;SDS011;13837;48.562;12.108;2023-11-19T10:35:35;13.68;;;13.15;;
26062;SDS011;13837;48.562;12.108;2023-11-19T10:38:12;13.57;;;13.07;;
26062;SDS011;13837;48.562;12.108;2023-11-19T10:40:39;13.50;;;13.00;;
26062;SDS011;13837;48.562;12.108;2023-11-19T10:43:05;13.48;;;12.90;;
26062;SDS011;13837;48.562;12.108;2023-11-19T10:45:35;13.93;;;13.30;;
26062;SDS011;13837;48.562;12.108;2023-11-19T10:48:04;13.20;;;12.70;;
26062;SDS011;13837;48.562;12.108;2023-11-19T10:50:34;13.25;;;12.65;;
26062;SDS011;13837;48.562;12.108;2023-11-19T10:53:01;14.65;;;13.75;;
26062;SDS011;13837;48.562;12.108;2023-11-19T10:55:29;13.52;;;12.80;;
26062;SDS011;13837;48.562;12.108;2023-11-19T10:58:15;13.00;;;12.43;;
26062;SDS011;13837;48.562;12.108;2023-11-19T11:00:45;13.27;;;12.70;;
26062;SDS011;13837;48.562;12.108;2023-11-19T11:03:19;12.60;;;12.10;;
26062;SDS011;13837;48.562;12.108;2023-11-19T11:05:46;12.90;;;12.40;;
26062;SDS011;13837;48.562;12.108;2023-11-19T11:08:12;12.52;;;12.07;;
26062;SDS011;13837;48.562;12.108;2023-11-19T11:11:13;12.50;;;12.00;;
26062;SDS011;13837;48.562;12.108;2023-11-19T11:13:31;12.73;;;12.02;;
26062;SDS011;13837;48.562;12.108;2023-11-19T11:15:58;12.50;;;12.10;;
26062;SDS011;13837;48.562;12.108;2023-11-19T11:18:24;12.68;;;12.18;;
26062;SDS011;13837;48.562;12.108;2023-11-19T11:20:55;12.50;;;12.00;;
26062;SDS011;13837;48.562;12.108;2023-11-19T11:26:13;12.70;;;12.20;;
26062;SDS011;13837;48.562;12.108;2023-11-19T11:28:48;12.85;;;12.35;;
26062;SDS011;13837;48.562;12.108;2023-11-19T11:31:34;12.43;;;11.93;;
26062;SDS011;13837;48.562;12.108;2023-11-19T11:37:49;12.80;;;12.30;;
26062;SDS011;13837;48.562;12.108;2023-11-19T11:39:42;12.52;;;12.02;;
26062;SDS011;13837;48.562;12.108;2023-11-19T11:47:26;12.10;;;11.70;;
26062;SDS011;13837;48.562;12.108;2023-11-19T11:49:52;12.68;;;12.18;;
26062;SDS011;13837;48.562;12.108;2023-11-19T11:52:19;12.48;;;11.93;;
26062;SDS011;13837;48.562;12.108;2023-11-19T11:54:45;12.23;;;11.73;;
26062;SDS011;13837;48.562;12.108;2023-11-19T11:57:12;12.32;;;11.75;;
26062;SDS011;13837;48.562;12.108;2023-11-19T12:02:07;12.40;;;11.90;;
26062;SDS011;13837;48.562;12.108;2023-11-19T12:04:34;12.60;;;12.10;;
26062;SDS011;13837;48.562;12.108;2023-11-19T12:07:08;12.77;;;12.10;;
26062;SDS011;13837;48.562;12.108;2023-11-19T12:09:36;12.10;;;11.60;;
26062;SDS011;13837;48.562;12.108;2023-11-19T12:12:12;11.93;;;11.52;;
26062;SDS011;13837;48.562;12.108;2023-11-19T12:20:05;12.80;;;12.30;;
26062;SDS011;13837;48.562;12.108;2023-11-19T12:22:34;13.10;;;12.60;;
26062;SDS011;13837;48.562;12.108;2023-11-19T12:25:01;12.88;;;12.10;;
26062;SDS011;13837;48.562;12.108;2023-11-19T12:27:28;12.70;;;12.20;;
26062;SDS011;13837;48.562;12.108;2023-11-19T12:29:54;12.48;;;11.95;;
26062;SDS011;13837;48.562;12.108;2023-11-19T12:32:22;12.85;;;12.25;;
26062;SDS011;13837;48.562;12.108;2023-11-19T12:34:48;12.10;;;11.70;;
26062;SDS011;13837;48.562;12.108;2023-11-19T12:37:14;12.32;;;11.73;;
26062;SDS011;13837;48.562;12.108;2023-11-19T12:39:40;11.50;;;11.10;;
26062;SDS011;13837;48.562;12.108;2023-11-19T12:42:06;11.80;;;11.40;;
26062;SDS011;13837;48.562;12.108;2023-11-19T12:44:32;11.25;;;10.85;;
26062;SDS011;13837;48.562;12.108;2023-11-19T12:47:06;11.30;;;10.80;;
26062;SDS011;13837;48.562;12.108;2023-11-19T12:49:32;10.75;;;10.35;;
26062;SDS011;13837;48.562;12.108;2023-11-19T12:51:59;10.70;;;10.30;;
26062;SDS011;13837;48.562;12.108;2023-11-19T12:54:35;11.02;;;10.52;;
26062;SDS011;13837;48.562;12.108;2023-11-19T12:57:01;11.10;;;10.50;;
26062;SDS011;13837;48.562;12.108;2023-11-19T12:59:27;10.70;;;10.30;;
26062;SDS011;13837;48.562;12.108;2023-11-19T13:01:57;11.35;;;10.85;;
26062;SDS011;13837;48.562;12.108;2023-11-19T13:04:23;11.00;;;10.50;;
26062;SDS011;13837;48.562;12.108;2023-11-19T13:06:53;11.00;;;10.48;;
26062;SDS011;13837;48.562;12.108;2023-11-19T13:09:25;11.48;;;10.70;;
26062;SDS011;13837;48.562;12.108;2023-11-19T13:11:52;10.07;;;9.68;;
26062;SDS011;13837;48.562;12.108;2023-11-19T13:14:19;9.75;;;9.45;;
26062;SDS011;13837;48.562;12.108;2023-11-19T13:16:45;10.60;;;10.20;;
26062;SDS011;13837;48.562;12.108;2023-11-19T13:19:15;10.80;;;10.30;;
26062;SDS011;13837;48.562;12.108;2023-11-19T13:21:41;10.70;;;10.20;;
26062;SDS011;13837;48.562;12.108;2023-11-19T13:24:08;10.52;;;10.00;;
26062;SDS011;13837;48.562;12.108;2023-11-19T13:26:34;11.05;;;10.55;;
26062;SDS011;13837;48.562;12.108;2023-11-19T13:29:00;10.93;;;10.52;;
26062;SDS011;13837;48.562;12.108;2023-11-19T13:31:26;10.90;;;10.50;;
26062;SDS011;13837;48.562;12.108;2023-11-19T13:33:53;10.98;;;10.48;;
26062;SDS011;13837;48.562;12.108;2023-11-19T13:36:19;10.80;;;10.40;;
26062;SDS011;13837;48.562;12.108;2023-11-19T13:38:45;10.95;;;10.55;;
26062;SDS011;13837;48.562;12.108;2023-11-19T13:41:12;11.70;;;11.20;;
26062;SDS011;13837;48.562;12.108;2023-11-19T13:43:39;10.75;;;10.35;;
26062;SDS011;13837;48.562;12.108;2023-11-19T13:46:05;11.00;;;10.50;;
26062;SDS011;13837;48.562;12.108;2023-11-19T13:48:31;11.25;;;10.80;;
26062;SDS011;13837;48.562;12.108;2023-11-19T13:50:58;10.80;;;10.40;;
26062;SDS011;13837;48.562;12.108;2023-11-19T13:53:25;12.10;;;11.40;;
26062;SDS011;13837;48.562;12.108;2023-11-19T13:55:51;11.18;;;10.77;;
26062;SDS011;13837;48.562;12.108;2023-11-19T13:58:18;11.80;;;11.10;;
26062;SDS011;13837;48.562;12.108;2023-11-19T14:00:44;11.20;;;10.70;;
26062;SDS011;13837;48.562;12.108;2023-11-19T14:03:10;11.40;;;11.00;;
26062;SDS011;13837;48.562;12.108;2023-11-19T14:05:37;11.40;;;11.00;;
26062;SDS011;13837;48.562;12.108;2023-11-19T14:08:04;11.10;;;10.70;;
26062;SDS011;13837;48.562;12.108;2023-11-19T14:10:36;11.50;;;11.10;;
26062;SDS011;13837;48.562;12.108;2023-11-19T14:13:04;11.90;;;11.50;;
26062;SDS011;13837;48.562;12.108;2023-11-19T14:15:30;11.85;;;11.25;;
26062;SDS011;13837;48.562;12.108;2023-11-19T14:17:56;11.60;;;11.20;;
26062;SDS011;13837;48.562;12.108;2023-11-19T14:20:23;12.15;;;11.75;;
26062;SDS011;13837;48.562;12.108;2023-11-19T14:22:50;11.90;;;11.50;;
26062;SDS011;13837;48.562;12.108;2023-11-19T14:25:17;12.20;;;11.80;;
26062;SDS011;13837;48.562;12.108;2023-11-19T14:27:44;12.20;;;11.70;;
26062;SDS011;13837;48.562;12.108;2023-11-19T14:30:11;12.57;;;11.90;;